sensor_id;sensor_type;location;lat;lon;timestamp;pressure;altitude;pressure_sealevel;temperature;humidity
60244;BME280;46106;51.468;5.814;2023-01-15T00:00:19;99602.88;;;7.72;100.00
60244;BME280;46106;51.468;5.814;2023-01-15T00:02:45;99574.50;;;7.54;100.00
60244;BME280;46106;51.468;5.814;2023-01-15T00:05:10;99588.88;;;7.56;100.00
60244;BME280;46106;51.468;5.814;2023-01-15T00:07:36;99605.41;;;7.64;100.00
60244;BME280;46106;51.468;5.814;2023-01-15T00:10:01;99605.28;;;7.66;100.00
60244;BME280;46106;51.468;5.814;2023-01-15T00:12:26;99575.38;;;7.33;100.00
60244;BME280;46106;51.468;5.814;2023-01-15T00:14:52;99579.28;;;7.41;100.00
60244;BME280;46106;51.468;5.814;2023-01-15T00:17:17;99598.56;;;7.49;100.00
60244;BME280;46106;51.468;5.814;2023-01-15T00:19:45;99573.25;;;7.37;100.00
60244;BME280;46106;51.468;5.814;2023-01-15T00:22:11;99580.38;;;7.49;100.00
60244;BME280;46106;51.468;5.814;2023-01-15T00:24:36;99596.91;;;7.58;100.00
60244;BME280;46106;51.468;5.814;2023-01-15T00:27:20;99601.13;;;7.50;100.00
60244;BME280;46106;51.468;5.814;2023-01-15T00:30:05;99606.00;;;7.47;100.00
60244;BME280;46106;51.468;5.814;2023-01-15T00:32:33;99578.38;;;7.30;100.00
60244;BME280;46106;51.468;5.814;2023-01-15T00:34:58;99581.81;;;7.32;100.00
60244;BME280;46106;51.468;5.814;2023-01-15T00:37:24;99574.53;;;7.33;100.00
60244;BME280;46106;51.468;5.814;2023-01-15T00:39:50;99592.84;;;7.31;100.00
60244;BME280;46106;51.468;5.814;2023-01-15T00:42:16;99577.84;;;7.36;100.00
60244;BME280;46106;51.468;5.814;2023-01-15T00:44:42;99585.13;;;7.36;100.00
60244;BME280;46106;51.468;5.814;2023-01-15T00:47:07;99568.59;;;7.28;100.00
60244;BME280;46106;51.468;5.814;2023-01-15T00:49:38;99588.72;;;7.36;100.00
60244;BME280;46106;51.468;5.814;2023-01-15T00:52:04;99599.50;;;7.38;100.00
60244;BME280;46106;51.468;5.814;2023-01-15T00:54:29;99585.41;;;7.33;100.00
60244;BME280;46106;51.468;5.814;2023-01-15T00:56:55;99603.66;;;7.42;100.00
60244;BME280;46106;51.468;5.814;2023-01-15T00:59:20;99628.78;;;7.46;100.00
60244;BME280;46106;51.468;5.814;2023-01-15T01:01:46;99611.63;;;7.34;100.00
60244;BME280;46106;51.468;5.814;2023-01-15T01:04:11;99617.47;;;7.29;100.00
60244;BME280;46106;51.468;5.814;2023-01-15T01:06:37;99625.31;;;7.44;100.00
60244;BME280;46106;51.468;5.814;2023-01-15T01:09:02;99592.84;;;7.31;100.00
60244;BME280;46106;51.468;5.814;2023-01-15T01:11:27;99619.88;;;7.44;100.00
60244;BME280;46106;51.468;5.814;2023-01-15T01:13:59;99627.78;;;7.47;100.00
60244;BME280;46106;51.468;5.814;2023-01-15T01:16:39;99629.41;;;7.49;100.00
60244;BME280;46106;51.468;5.814;2023-01-15T01:19:18;99618.31;;;7.41;100.00
60244;BME280;46106;51.468;5.814;2023-01-15T01:21:44;99620.00;;;7.42;100.00
60244;BME280;46106;51.468;5.814;2023-01-15T01:24:11;99620.66;;;7.55;100.00
60244;BME280;46106;51.468;5.814;2023-01-15T01:26:37;99622.72;;;7.42;100.00
60244;BME280;46106;51.468;5.814;2023-01-15T01:29:03;99627.44;;;7.40;100.00
60244;BME280;46106;51.468;5.814;2023-01-15T01:31:29;99625.13;;;7.35;100.00
60244;BME280;46106;51.468;5.814;2023-01-15T01:33:56;99625.56;;;7.20;100.00
60244;BME280;46106;51.468;5.814;2023-01-15T01:36:28;99609.22;;;7.20;100.00
60244;BME280;46106;51.468;5.814;2023-01-15T01:38:54;99580.81;;;7.12;100.00
60244;BME280;46106;51.468;5.814;2023-01-15T01:41:20;99582.47;;;7.04;100.00
60244;BME280;46106;51.468;5.814;2023-01-15T01:44:04;99596.38;;;7.22;100.00
60244;BME280;46106;51.468;5.814;2023-01-15T01:46:33;99614.63;;;7.31;100.00
60244;BME280;46106;51.468;5.814;2023-01-15T01:49:07;99604.91;;;7.17;100.00
60244;BME280;46106;51.468;5.814;2023-01-15T01:51:42;99627.38;;;7.30;100.00
60244;BME280;46106;51.468;5.814;2023-01-15T01:54:13;99621.97;;;7.19;100.00
60244;BME280;46106;51.468;5.814;2023-01-15T01:56:40;99605.97;;;7.26;100.00
60244;BME280;46106;51.468;5.814;2023-01-15T01:59:06;99633.28;;;7.35;100.00
60244;BME280;46106;51.468;5.814;2023-01-15T02:01:32;99593.84;;;7.30;100.00
60244;BME280;46106;51.468;5.814;2023-01-15T02:03:59;99613.63;;;7.32;100.00
60244;BME280;46106;51.468;5.814;2023-01-15T02:06:26;99623.13;;;7.38;100.00
60244;BME280;46106;51.468;5.814;2023-01-15T02:08:53;99627.84;;;7.35;100.00
60244;BME280;46106;51.468;5.814;2023-01-15T02:11:21;99635.16;;;7.35;100.00
60244;BME280;46106;51.468;5.814;2023-01-15T02:16:23;99630.81;;;7.32;100.00
60244;BME280;46106;51.468;5.814;2023-01-15T02:18:59;99619.94;;;7.32;100.00
60244;BME280;46106;51.468;5.814;2023-01-15T02:21:49;99629.50;;;7.27;100.00
60244;BME280;46106;51.468;5.814;2023-01-15T02:24:27;99634.00;;;7.38;100.00
60244;BME280;46106;51.468;5.814;2023-01-15T02:32:04;99627.25;;;7.32;100.00
60244;BME280;46106;51.468;5.814;2023-01-15T02:34:34;99626.47;;;7.41;100.00
60244;BME280;46106;51.468;5.814;2023-01-15T02:37:22;99620.34;;;7.49;100.00
60244;BME280;46106;51.468;5.814;2023-01-15T02:39:50;99621.47;;;7.46;100.00
60244;BME280;46106;51.468;5.814;2023-01-15T02:42:18;99585.59;;;7.20;100.00
60244;BME280;46106;51.468;5.814;2023-01-15T02:44:48;99603.00;;;7.29;100.00
60244;BME280;46106;51.468;5.814;2023-01-15T02:47:19;99599.03;;;7.33;100.00
60244;BME280;46106;51.468;5.814;2023-01-15T02:49:47;99596.22;;;7.44;100.00
60244;BME280;46106;51.468;5.814;2023-01-15T02:52:20;99582.16;;;7.39;100.00
60244;BME280;46106;51.468;5.814;2023-01-15T02:55:18;99573.72;;;7.42;100.00
60244;BME280;46106;51.468;5.814;2023-01-15T02:57:46;99583.69;;;7.53;100.00
60244;BME280;46106;51.468;5.814;2023-01-15T03:00:16;99568.06;;;7.34;100.00
60244;BME280;46106;51.468;5.814;2023-01-15T03:02:55;99576.75;;;7.28;100.00
60244;BME280;46106;51.468;5.814;2023-01-15T03:06:21;99581.88;;;7.42;100.00
60244;BME280;46106;51.468;5.814;2023-01-15T03:08:26;99581.41;;;7.37;100.00
60244;BME280;46106;51.468;5.814;2023-01-15T03:13:39;99590.13;;;7.52;100.00
60244;BME280;46106;51.468;5.814;2023-01-15T03:16:21;99594.31;;;7.56;100.00
60244;BME280;46106;51.468;5.814;2023-01-15T03:24:52;99601.78;;;7.64;100.00
60244;BME280;46106;51.468;5.814;2023-01-15T03:27:20;99592.25;;;7.48;100.00
60244;BME280;46106;51.468;5.814;2023-01-15T03:30:03;99581.63;;;7.45;100.00
60244;BME280;46106;51.468;5.814;2023-01-15T03:32:30;99577.66;;;7.49;100.00
60244;BME280;46106;51.468;5.814;2023-01-15T03:34:56;99582.81;;;7.52;100.00
60244;BME280;46106;51.468;5.814;2023-01-15T03:37:24;99574.56;;;7.43;100.00
60244;BME280;46106;51.468;5.814;2023-01-15T03:39:51;99581.16;;;7.40;100.00
60244;BME280;46106;51.468;5.814;2023-01-15T03:42:39;99574.56;;;7.43;100.00
60244;BME280;46106;51.468;5.814;2023-01-15T03:45:14;99567.47;;;7.30;100.00
60244;BME280;46106;51.468;5.814;2023-01-15T03:48:00;99588.81;;;7.46;100.00
60244;BME280;46106;51.468;5.814;2023-01-15T03:50:43;99578.03;;;7.24;100.00
60244;BME280;46106;51.468;5.814;2023-01-15T03:53:14;99589.78;;;7.24;100.00
60244;BME280;46106;51.468;5.814;2023-01-15T04:01:17;99575.69;;;7.19;100.00
60244;BME280;46106;51.468;5.814;2023-01-15T04:03:45;99574.47;;;7.23;100.00
60244;BME280;46106;51.468;5.814;2023-01-15T04:06:13;99584.41;;;7.34;100.00
60244;BME280;46106;51.468;5.814;2023-01-15T04:08:41;99579.56;;;7.38;100.00
60244;BME280;46106;51.468;5.814;2023-01-15T04:11:07;99590.66;;;7.46;100.00
60244;BME280;46106;51.468;5.814;2023-01-15T04:13:33;99587.91;;;7.46;100.00
60244;BME280;46106;51.468;5.814;2023-01-15T04:15:59;99581.63;;;7.45;100.00
60244;BME280;46106;51.468;5.814;2023-01-15T04:18:24;99573.19;;;7.27;100.00
60244;BME280;46106;51.468;5.814;2023-01-15T04:20:50;99590.19;;;7.41;100.00
60244;BME280;46106;51.468;5.814;2023-01-15T04:23:15;99584.16;;;7.37;100.00
60244;BME280;46106;51.468;5.814;2023-01-15T04:25:41;99580.84;;;7.33;100.00
60244;BME280;46106;51.468;5.814;2023-01-15T04:28:07;99587.31;;;7.42;100.00
60244;BME280;46106;51.468;5.814;2023-01-15T04:30:33;99579.56;;;7.38;100.00
60244;BME280;46106;51.468;5.814;2023-01-15T04:33:00;99585.31;;;7.44;100.00
60244;BME280;46106;51.468;5.814;2023-01-15T04:35:25;99577.91;;;7.46;100.00
60244;BME280;46106;51.468;5.814;2023-01-15T04:37:58;99584.34;;;7.45;100.00
60244;BME280;46106;51.468;5.814;2023-01-15T04:40:24;99577.44;;;7.41;100.00
60244;BME280;46106;51.468;5.814;2023-01-15T04:43:12;99582.06;;;7.50;100.00
60244;BME280;46106;51.468;5.814;2023-01-15T04:45:57;99577.16;;;7.44;100.00
60244;BME280;46106;51.468;5.814;2023-01-15T04:48:23;99581.34;;;7.48;100.00
60244;BME280;46106;51.468;5.814;2023-01-15T04:50:48;99597.88;;;7.35;100.00
60244;BME280;46106;51.468;5.814;2023-01-15T04:53:14;99598.63;;;7.38;100.00
60244;BME280;46106;51.468;5.814;2023-01-15T04:55:40;99593.84;;;7.30;100.00
60244;BME280;46106;51.468;5.814;2023-01-15T04:58:05;99579.91;;;7.23;100.00
60244;BME280;46106;51.468;5.814;2023-01-15T05:00:31;99597.88;;;7.35;100.00
60244;BME280;46106;51.468;5.814;2023-01-15T05:02:56;99600.94;;;7.42;100.00
60244;BME280;46106;51.468;5.814;2023-01-15T05:05:22;99598.69;;;7.47;100.00
60244;BME280;46106;51.468;5.814;2023-01-15T05:07:47;99587.59;;;7.39;100.00
60244;BME280;46106;51.468;5.814;2023-01-15T05:10:13;99584.41;;;7.34;100.00
60244;BME280;46106;51.468;5.814;2023-01-15T05:12:38;99581.56;;;7.35;100.00
60244;BME280;46106;51.468;5.814;2023-01-15T05:15:04;99584.28;;;7.35;100.00
60244;BME280;46106;51.468;5.814;2023-01-15T05:17:31;99593.38;;;7.46;100.00
60244;BME280;46106;51.468;5.814;2023-01-15T05:19:57;99579.75;;;7.46;100.00
60244;BME280;46106;51.468;5.814;2023-01-15T05:22:22;99581.94;;;7.31;100.00
60244;BME280;46106;51.468;5.814;2023-01-15T05:24:48;99591.72;;;7.33;100.00
60244;BME280;46106;51.468;5.814;2023-01-15T05:27:13;99598.81;;;7.46;100.00
60244;BME280;46106;51.468;5.814;2023-01-15T05:29:38;99590.88;;;7.33;100.00
60244;BME280;46106;51.468;5.814;2023-01-15T05:32:04;99584.34;;;7.24;100.00
60244;BME280;46106;51.468;5.814;2023-01-15T05:34:29;99564.00;;;7.07;100.00
60244;BME280;46106;51.468;5.814;2023-01-15T05:36:55;99581.88;;;7.21;100.00
60244;BME280;46106;51.468;5.814;2023-01-15T05:39:20;99569.19;;;7.10;100.00
60244;BME280;46106;51.468;5.814;2023-01-15T05:41:46;99577.31;;;7.22;100.00
60244;BME280;46106;51.468;5.814;2023-01-15T05:44:28;99579.00;;;7.23;100.00
60244;BME280;46106;51.468;5.814;2023-01-15T05:46:59;99588.28;;;7.31;100.00
60244;BME280;46106;51.468;5.814;2023-01-15T05:49:27;99557.34;;;7.00;100.00
60244;BME280;46106;51.468;5.814;2023-01-15T05:51:54;99566.47;;;6.78;100.00
60244;BME280;46106;51.468;5.814;2023-01-15T05:54:22;99587.13;;;6.80;100.00
60244;BME280;46106;51.468;5.814;2023-01-15T05:56:48;99595.78;;;6.86;100.00
60244;BME280;46106;51.468;5.814;2023-01-15T05:59:15;99605.50;;;6.88;100.00
60244;BME280;46106;51.468;5.814;2023-01-15T06:01:41;99595.72;;;6.97;100.00
60244;BME280;46106;51.468;5.814;2023-01-15T06:04:07;99596.69;;;6.63;100.00
60244;BME280;46106;51.468;5.814;2023-01-15T06:06:33;99592.69;;;6.35;100.00
60244;BME280;46106;51.468;5.814;2023-01-15T06:08:59;99560.69;;;6.28;100.00
60244;BME280;46106;51.468;5.814;2023-01-15T06:11:25;99576.38;;;6.35;100.00
60244;BME280;46106;51.468;5.814;2023-01-15T06:13:51;99594.91;;;6.41;100.00
60244;BME280;46106;51.468;5.814;2023-01-15T06:16:17;99576.13;;;6.27;100.00
60244;BME280;46106;51.468;5.814;2023-01-15T06:18:43;99598.13;;;6.35;100.00
60244;BME280;46106;51.468;5.814;2023-01-15T06:21:10;99593.63;;;6.46;100.00
60244;BME280;46106;51.468;5.814;2023-01-15T06:23:37;99602.91;;;6.54;100.00
60244;BME280;46106;51.468;5.814;2023-01-15T06:26:04;99606.72;;;6.63;100.00
60244;BME280;46106;51.468;5.814;2023-01-15T06:28:30;99603.16;;;6.51;100.00
60244;BME280;46106;51.468;5.814;2023-01-15T06:30:56;99597.81;;;6.61;100.00
60244;BME280;46106;51.468;5.814;2023-01-15T06:33:21;99597.69;;;6.62;100.00
60244;BME280;46106;51.468;5.814;2023-01-15T06:35:47;99598.81;;;6.60;100.00
60244;BME280;46106;51.468;5.814;2023-01-15T06:38:12;99598.69;;;6.61;100.00
60244;BME280;46106;51.468;5.814;2023-01-15T06:40:37;99607.94;;;6.59;100.00
60244;BME280;46106;51.468;5.814;2023-01-15T06:43:04;99595.72;;;6.53;100.00
60244;BME280;46106;51.468;5.814;2023-01-15T06:45:47;99596.84;;;6.51;100.00
60244;BME280;46106;51.468;5.814;2023-01-15T06:48:32;99601.41;;;6.50;100.00
60244;BME280;46106;51.468;5.814;2023-01-15T06:50:57;99617.63;;;6.40;100.00
60244;BME280;46106;51.468;5.814;2023-01-15T06:53:23;99615.00;;;6.50;100.00
60244;BME280;46106;51.468;5.814;2023-01-15T06:55:49;99609.69;;;6.60;100.00
60244;BME280;46106;51.468;5.814;2023-01-15T06:58:15;99619.72;;;6.48;100.00
60244;BME280;46106;51.468;5.814;2023-01-15T07:00:41;99608.72;;;6.50;100.00
60244;BME280;46106;51.468;5.814;2023-01-15T07:03:10;99631.91;;;6.65;100.00
60244;BME280;46106;51.468;5.814;2023-01-15T07:05:39;99623.75;;;6.65;100.00
60244;BME280;46106;51.468;5.814;2023-01-15T07:08:05;99628.72;;;6.60;100.00
60244;BME280;46106;51.468;5.814;2023-01-15T07:10:33;99629.31;;;6.63;100.00
60244;BME280;46106;51.468;5.814;2023-01-15T07:12:58;99631.91;;;6.65;100.00
60244;BME280;46106;51.468;5.814;2023-01-15T07:15:24;99627.63;;;6.62;100.00
60244;BME280;46106;51.468;5.814;2023-01-15T07:17:53;99622.69;;;6.56;100.00
60244;BME280;46106;51.468;5.814;2023-01-15T07:20:18;99625.66;;;6.53;100.00
60244;BME280;46106;51.468;5.814;2023-01-15T07:22:48;99621.19;;;6.52;100.00
60244;BME280;46106;51.468;5.814;2023-01-15T07:25:13;99630.34;;;6.62;100.00
60244;BME280;46106;51.468;5.814;2023-01-15T07:27:39;99616.75;;;6.62;100.00
60244;BME280;46106;51.468;5.814;2023-01-15T07:30:04;99633.31;;;6.59;100.00
60244;BME280;46106;51.468;5.814;2023-01-15T07:32:30;99633.31;;;6.48;100.00
60244;BME280;46106;51.468;5.814;2023-01-15T07:34:55;99652.34;;;6.48;100.00
60244;BME280;46106;51.468;5.814;2023-01-15T07:37:21;99661.84;;;6.65;100.00
60244;BME280;46106;51.468;5.814;2023-01-15T07:39:46;99653.94;;;6.62;100.00
60244;BME280;46106;51.468;5.814;2023-01-15T07:42:11;99652.69;;;6.66;100.00
60244;BME280;46106;51.468;5.814;2023-01-15T07:44:55;99659.38;;;6.62;100.00
60244;BME280;46106;51.468;5.814;2023-01-15T07:47:39;99651.34;;;6.60;100.00
60244;BME280;46106;51.468;5.814;2023-01-15T07:50:23;99673.19;;;6.70;100.00
60244;BME280;46106;51.468;5.814;2023-01-15T07:52:49;99654.56;;;6.54;100.00
60244;BME280;46106;51.468;5.814;2023-01-15T07:55:15;99670.63;;;6.57;100.00
60244;BME280;46106;51.468;5.814;2023-01-15T07:57:42;99683.59;;;6.54;100.00
60244;BME280;46106;51.468;5.814;2023-01-15T08:00:14;99682.63;;;6.55;100.00
60244;BME280;46106;51.468;5.814;2023-01-15T08:02:40;99682.38;;;6.47;100.00
60244;BME280;46106;51.468;5.814;2023-01-15T08:05:07;99681.66;;;6.44;100.00
60244;BME280;46106;51.468;5.814;2023-01-15T08:07:40;99672.25;;;6.26;100.00
60244;BME280;46106;51.468;5.814;2023-01-15T08:10:07;99679.19;;;6.41;100.00
60244;BME280;46106;51.468;5.814;2023-01-15T08:12:33;99682.25;;;6.37;100.00
60244;BME280;46106;51.468;5.814;2023-01-15T08:15:17;99689.81;;;6.33;100.00
60244;BME280;46106;51.468;5.814;2023-01-15T08:17:45;99685.72;;;6.28;100.00
60244;BME280;46106;51.468;5.814;2023-01-15T08:22:40;99706.22;;;6.32;100.00
60244;BME280;46106;51.468;5.814;2023-01-15T08:25:09;99703.53;;;6.32;100.00
60244;BME280;46106;51.468;5.814;2023-01-15T08:27:36;99702.03;;;6.28;100.00
60244;BME280;46106;51.468;5.814;2023-01-15T08:30:03;99691.78;;;6.20;100.00
60244;BME280;46106;51.468;5.814;2023-01-15T08:32:29;99687.44;;;6.29;100.00
60244;BME280;46106;51.468;5.814;2023-01-15T08:34:54;99679.16;;;6.19;100.00
60244;BME280;46106;51.468;5.814;2023-01-15T08:37:20;99683.47;;;6.21;100.00
60244;BME280;46106;51.468;5.814;2023-01-15T08:39:45;99691.78;;;6.20;100.00
60244;BME280;46106;51.468;5.814;2023-01-15T08:42:11;99695.22;;;6.11;100.00
60244;BME280;46106;51.468;5.814;2023-01-15T08:44:36;99690.66;;;6.22;100.00
60244;BME280;46106;51.468;5.814;2023-01-15T08:47:02;99704.72;;;6.28;100.00
60244;BME280;46106;51.468;5.814;2023-01-15T08:49:27;99688.06;;;6.32;100.00
60244;BME280;46106;51.468;5.814;2023-01-15T08:51:53;99684.13;;;6.25;100.00
60244;BME280;46106;51.468;5.814;2023-01-15T08:54:20;99694.50;;;6.20;100.00
60244;BME280;46106;51.468;5.814;2023-01-15T08:56:47;99672.50;;;6.12;100.00
60244;BME280;46106;51.468;5.814;2023-01-15T08:59:14;99691.78;;;6.20;100.00
60244;BME280;46106;51.468;5.814;2023-01-15T09:01:40;99680.38;;;6.15;100.00
60244;BME280;46106;51.468;5.814;2023-01-15T09:04:05;99684.59;;;6.19;100.00
60244;BME280;46106;51.468;5.814;2023-01-15T09:06:31;99674.47;;;6.21;100.00
60244;BME280;46106;51.468;5.814;2023-01-15T09:09:00;99680.63;;;6.23;100.00
60244;BME280;46106;51.468;5.814;2023-01-15T09:11:26;99675.31;;;6.33;100.00
60244;BME280;46106;51.468;5.814;2023-01-15T09:13:53;99669.03;;;6.32;100.00
60244;BME280;46106;51.468;5.814;2023-01-15T09:16:18;99663.72;;;6.31;100.00
60244;BME280;46106;51.468;5.814;2023-01-15T09:18:44;99677.56;;;6.39;100.00
60244;BME280;46106;51.468;5.814;2023-01-15T09:21:10;99674.34;;;6.45;100.00
60244;BME280;46106;51.468;5.814;2023-01-15T09:23:35;99664.56;;;6.42;100.00
60244;BME280;46106;51.468;5.814;2023-01-15T09:26:04;99662.34;;;6.48;100.00
60244;BME280;46106;51.468;5.814;2023-01-15T09:28:31;99655.31;;;6.56;100.00
60244;BME280;46106;51.468;5.814;2023-01-15T09:30:57;99668.66;;;6.59;100.00
60244;BME280;46106;51.468;5.814;2023-01-15T09:33:24;99657.22;;;6.77;100.00
60244;BME280;46106;51.468;5.814;2023-01-15T09:35:50;99673.06;;;6.83;100.00
60244;BME280;46106;51.468;5.814;2023-01-15T09:38:17;99682.19;;;6.82;100.00
60244;BME280;46106;51.468;5.814;2023-01-15T09:40:50;99680.00;;;6.76;100.00
60244;BME280;46106;51.468;5.814;2023-01-15T09:43:54;99678.00;;;6.89;100.00
60244;BME280;46106;51.468;5.814;2023-01-15T09:49:20;99673.84;;;7.06;100.00
60244;BME280;46106;51.468;5.814;2023-01-15T09:52:10;99681.06;;;7.40;100.00
60244;BME280;46106;51.468;5.814;2023-01-15T09:55:39;99673.09;;;7.48;100.00
60244;BME280;46106;51.468;5.814;2023-01-15T09:57:32;99668.53;;;7.69;100.00
60244;BME280;46106;51.468;5.814;2023-01-15T09:59:58;99668.31;;;7.61;100.00
60244;BME280;46106;51.468;5.814;2023-01-15T10:05:52;99690.56;;;7.66;100.00
60244;BME280;46106;51.468;5.814;2023-01-15T10:08:24;99689.91;;;7.53;100.00
60244;BME280;46106;51.468;5.814;2023-01-15T10:10:54;99708.72;;;7.56;100.00
60244;BME280;46106;51.468;5.814;2023-01-15T10:13:27;99711.88;;;7.94;100.00
60244;BME280;46106;51.468;5.814;2023-01-15T10:15:56;99717.22;;;7.63;100.00
60244;BME280;46106;51.468;5.814;2023-01-15T10:18:24;99715.78;;;7.47;100.00
60244;BME280;46106;51.468;5.814;2023-01-15T10:31:19;99725.53;;;7.61;100.00
60244;BME280;46106;51.468;5.814;2023-01-15T10:33:50;99718.72;;;7.55;100.00
60244;BME280;46106;51.468;5.814;2023-01-15T10:36:27;99704.72;;;7.60;100.00
60244;BME280;46106;51.468;5.814;2023-01-15T10:39:13;99720.06;;;7.61;100.00
60244;BME280;46106;51.468;5.814;2023-01-15T10:45:10;99726.91;;;7.55;100.00
60244;BME280;46106;51.468;5.814;2023-01-15T10:47:38;99719.75;;;7.54;100.00
60244;BME280;46106;51.468;5.814;2023-01-15T10:50:15;99706.94;;;7.66;100.00
60244;BME280;46106;51.468;5.814;2023-01-15T10:52:43;99704.22;;;7.87;100.00
60244;BME280;46106;51.468;5.814;2023-01-15T10:55:25;99696.50;;;8.14;100.00
60244;BME280;46106;51.468;5.814;2023-01-15T10:58:13;99696.69;;;8.43;100.00
60244;BME280;46106;51.468;5.814;2023-01-15T11:00:46;99696.50;;;8.14;100.00
60244;BME280;46106;51.468;5.814;2023-01-15T11:03:19;99686.31;;;7.73;100.00
60244;BME280;46106;51.468;5.814;2023-01-15T11:05:46;99709.97;;;7.73;100.00
60244;BME280;46106;51.468;5.814;2023-01-15T11:08:23;99697.91;;;7.66;100.00
60244;BME280;46106;51.468;5.814;2023-01-15T11:10:54;99706.19;;;7.85;100.00
60244;BME280;46106;51.468;5.814;2023-01-15T11:13:22;99705.31;;;7.64;100.00
60244;BME280;46106;51.468;5.814;2023-01-15T11:16:14;99708.03;;;7.64;100.00
60244;BME280;46106;51.468;5.814;2023-01-15T11:19:04;99711.78;;;7.63;100.00
60244;BME280;46106;51.468;5.814;2023-01-15T11:21:49;99704.22;;;7.87;100.00
60244;BME280;46106;51.468;5.814;2023-01-15T11:24:16;99711.97;;;8.13;100.00
60244;BME280;46106;51.468;5.814;2023-01-15T11:26:51;99694.28;;;7.86;100.00
60244;BME280;46106;51.468;5.814;2023-01-15T11:29:45;99726.16;;;7.86;100.00
60244;BME280;46106;51.468;5.814;2023-01-15T11:32:24;99721.22;;;7.80;100.00
60244;BME280;46106;51.468;5.814;2023-01-15T11:34:59;99716.44;;;7.93;100.00
60244;BME280;46106;51.468;5.814;2023-01-15T11:37:26;99697.22;;;7.73;100.00
60244;BME280;46106;51.468;5.814;2023-01-15T11:39:56;99719.94;;;7.63;100.00
60244;BME280;46106;51.468;5.814;2023-01-15T11:42:24;99717.56;;;7.69;100.00
60244;BME280;46106;51.468;5.814;2023-01-15T11:45:17;99721.66;;;7.64;100.00
60244;BME280;46106;51.468;5.814;2023-01-15T11:48:13;99707.72;;;7.78;100.00
60244;BME280;46106;51.468;5.814;2023-01-15T11:51:16;99726.66;;;7.80;100.00
60244;BME280;46106;51.468;5.814;2023-01-15T11:53:48;99727.06;;;7.75;100.00
60244;BME280;46106;51.468;5.814;2023-01-15T11:56:21;99714.72;;;7.71;100.00
60244;BME280;46106;51.468;5.814;2023-01-15T11:59:01;99707.84;;;7.98;100.00
60244;BME280;46106;51.468;5.814;2023-01-15T12:01:33;99716.56;;;7.91;100.00
60244;BME280;46106;51.468;5.814;2023-01-15T12:04:02;99701.94;;;7.93;100.00
60244;BME280;46106;51.468;5.814;2023-01-15T12:06:29;99729.72;;;7.86;100.00
60244;BME280;46106;51.468;5.814;2023-01-15T12:09:19;99726.41;;;7.83;100.00
60244;BME280;46106;51.468;5.814;2023-01-15T12:14:30;99709.47;;;7.79;100.00
60244;BME280;46106;51.468;5.814;2023-01-15T12:32:42;99700.19;;;7.70;100.00
60244;BME280;46106;51.468;5.814;2023-01-15T12:35:22;99690.19;;;7.71;100.00
60244;BME280;46106;51.468;5.814;2023-01-15T12:37:57;99696.16;;;7.65;100.00
60244;BME280;46106;51.468;5.814;2023-01-15T12:40:38;99698.75;;;7.66;100.00
60244;BME280;46106;51.468;5.814;2023-01-15T12:43:13;99696.97;;;7.77;100.00
60244;BME280;46106;51.468;5.814;2023-01-15T12:46:01;99705.44;;;7.62;100.00
60244;BME280;46106;51.468;5.814;2023-01-15T12:48:37;99704.31;;;7.65;100.00
60244;BME280;46106;51.468;5.814;2023-01-15T12:51:13;99682.06;;;7.60;100.00
60244;BME280;46106;51.468;5.814;2023-01-15T12:53:46;99697.03;;;7.86;100.00
60244;BME280;46106;51.468;5.814;2023-01-15T12:59:06;99695.94;;;7.57;100.00
60244;BME280;46106;51.468;5.814;2023-01-15T13:04:27;99691.75;;;7.52;100.00
60244;BME280;46106;51.468;5.814;2023-01-15T13:07:13;99683.16;;;7.36;100.00
60244;BME280;46106;51.468;5.814;2023-01-15T13:12:16;99698.47;;;7.48;100.00
60244;BME280;46106;51.468;5.814;2023-01-15T13:14:42;99696.94;;;7.55;100.00
60244;BME280;46106;51.468;5.814;2023-01-15T13:19:45;99710.84;;;7.73;100.00
60244;BME280;46106;51.468;5.814;2023-01-15T13:22:17;99712.97;;;7.91;100.00
60244;BME280;46106;51.468;5.814;2023-01-15T13:28:12;99680.53;;;7.88;100.00
60244;BME280;46106;51.468;5.814;2023-01-15T13:30:55;99712.84;;;7.93;100.00
60244;BME280;46106;51.468;5.814;2023-01-15T13:33:45;99713.72;;;7.93;100.00
60244;BME280;46106;51.468;5.814;2023-01-15T13:36:33;99692.44;;;7.87;100.00
60244;BME280;46106;51.468;5.814;2023-01-15T13:39:04;99711.25;;;7.90;100.00
60244;BME280;46106;51.468;5.814;2023-01-15T13:41:52;99718.97;;;7.85;100.00
60244;BME280;46106;51.468;5.814;2023-01-15T13:44:46;99701.28;;;7.79;100.00
60244;BME280;46106;51.468;5.814;2023-01-15T13:47:17;99731.34;;;7.89;100.00
60244;BME280;46106;51.468;5.814;2023-01-15T13:49:47;99721.75;;;7.73;100.00
60244;BME280;46106;51.468;5.814;2023-01-15T13:54:58;99712.97;;;7.70;100.00
60244;BME280;46106;51.468;5.814;2023-01-15T13:57:32;99712.50;;;7.65;100.00
60244;BME280;46106;51.468;5.814;2023-01-15T13:59:59;99720.03;;;7.72;100.00
60244;BME280;46106;51.468;5.814;2023-01-15T14:02:31;99713.81;;;7.70;100.00
60244;BME280;46106;51.468;5.814;2023-01-15T14:04:59;99729.19;;;7.71;100.00
60244;BME280;46106;51.468;5.814;2023-01-15T14:07:35;99720.28;;;7.69;100.00
60244;BME280;46106;51.468;5.814;2023-01-15T14:13:23;99724.47;;;7.73;100.00
60244;BME280;46106;51.468;5.814;2023-01-15T14:21:26;99719.47;;;7.79;100.00
60244;BME280;46106;51.468;5.814;2023-01-15T14:24:19;99726.28;;;7.84;100.00
60244;BME280;46106;51.468;5.814;2023-01-15T14:35:21;99720.13;;;7.50;100.00
60244;BME280;46106;51.468;5.814;2023-01-15T14:40:20;99725.06;;;7.56;100.00
60244;BME280;46106;51.468;5.814;2023-01-15T14:42:50;99717.28;;;7.51;100.00
60244;BME280;46106;51.468;5.814;2023-01-15T14:45:42;99730.28;;;7.48;100.00
60244;BME280;46106;51.468;5.814;2023-01-15T14:48:18;99725.91;;;7.57;100.00
60244;BME280;46106;51.468;5.814;2023-01-15T14:50:45;99748.78;;;7.65;100.00
60244;BME280;46106;51.468;5.814;2023-01-15T14:55:49;99742.34;;;7.66;100.00
60244;BME280;46106;51.468;5.814;2023-01-15T15:00:52;99755.22;;;7.64;100.00
60244;BME280;46106;51.468;5.814;2023-01-15T15:03:33;99750.63;;;7.65;100.00